Time;durP1;ratioP1;P1;durP2;ratioP2;P2;SDS_P1;SDS_P2;PMS_P1;PMS_P2;Temp;Humidity;BMP_temperature;BMP_pressure;BME280_temperature;BME280_humidity;BME280_pressure;Samples;Min_cycle;Max_cycle;Signal;HPM_P1;HPM_P2
2023/01/22 00:05:04;;;;;;;9.07;7.15;;;;;;;;;;10084921;28;20571;-67
2023/01/22 00:10:01;;;;;;;8.75;7.32;;;;;;;;;;10093950;28;20065;-67
2023/01/22 00:14:54;;;;;;;11.57;9.27;;;;;;;;;;10083864;28;20063;-67
2023/01/22 00:19:48;;;;;;;8.07;7.28;;;;;;;;;;10095249;28;20060;-68
2023/01/22 00:24:43;;;;;;;10.20;9.00;;;;;;;;;;10090247;28;20053;-67
2023/01/22 00:29:37;;;;;;;12.50;9.57;;;;;;;;;;10086577;28;20049;-68
2023/01/22 00:34:30;;;;;;;10.00;7.82;;;;;;;;;;10069453;28;20057;-68
2023/01/22 00:39:24;;;;;;;9.85;8.55;;;;;;;;;;10086895;28;20563;-67
2023/01/22 00:44:18;;;;;;;9.63;8.63;;;;;;;;;;10080786;28;20551;-67
2023/01/22 00:49:12;;;;;;;10.85;9.57;;;;;;;;;;10083979;28;20061;-67
2023/01/22 00:54:06;;;;;;;12.63;11.00;;;;;;;;;;10091365;28;20049;-67
2023/01/22 00:59:00;;;;;;;13.70;9.85;;;;;;;;;;10109098;28;20497;-67
2023/01/22 01:03:54;;;;;;;14.77;10.88;;;;;;;;;;10109332;28;20037;-68
2023/01/22 01:08:47;;;;;;;12.68;10.38;;;;;;;;;;10096759;28;20053;-67
2023/01/22 01:13:42;;;;;;;11.27;9.60;;;;;;;;;;10108027;28;20259;-67
2023/01/22 01:18:35;;;;;;;11.88;10.05;;;;;;;;;;10088889;28;20103;-67
2023/01/22 01:23:31;;;;;;;11.85;9.40;;;;;;;;;;10093843;28;20052;-66
2023/01/22 01:28:27;;;;;;;13.25;11.07;;;;;;;;;;10094850;28;20524;-67
2023/01/22 01:33:20;;;;;;;12.95;10.75;;;;;;;;;;10084906;28;20496;-67
2023/01/22 01:38:13;;;;;;;12.13;10.32;;;;;;;;;;10088948;28;20042;-67
2023/01/22 01:43:14;;;;;;;13.40;11.35;;;;;;;;;;10090876;28;20198;-67
2023/01/22 01:48:31;;;;;;;12.63;10.40;;;;;;;;;;10066243;28;20061;-65
2023/01/22 01:53:24;;;;;;;16.23;12.70;;;;;;;;;;10094191;28;20045;-68
2023/01/22 01:58:21;;;;;;;10.48;9.38;;;;;;;;;;10091998;28;20069;-67
2023/01/22 02:03:13;;;;;;;13.18;10.13;;;;;;;;;;10088906;28;20650;-67
2023/01/22 02:08:09;;;;;;;13.65;9.23;;;;;;;;;;10091045;28;20049;-67
2023/01/22 02:13:08;;;;;;;12.80;9.30;;;;;;;;;;10089354;28;20673;-67
2023/01/22 02:18:02;;;;;;;10.02;8.73;;;;;;;;;;10092479;28;20521;-68
2023/01/22 02:22:56;;;;;;;9.80;8.80;;;;;;;;;;10088802;28;20519;-68
2023/01/22 02:27:49;;;;;;;10.32;9.15;;;;;;;;;;10092147;28;20068;-67
2023/01/22 02:32:45;;;;;;;12.43;9.65;;;;;;;;;;10091753;28;20038;-68
2023/01/22 02:37:40;;;;;;;10.30;8.65;;;;;;;;;;10087230;28;20052;-68
2023/01/22 02:42:34;;;;;;;13.55;9.35;;;;;;;;;;10087795;28;20056;-68
2023/01/22 02:47:26;;;;;;;11.98;9.38;;;;;;;;;;10088594;28;20060;-68
2023/01/22 02:52:20;;;;;;;9.27;8.38;;;;;;;;;;10088923;28;20056;-68
2023/01/22 02:57:14;;;;;;;7.97;6.47;;;;;;;;;;10092987;28;20076;-68
2023/01/22 03:02:09;;;;;;;6.25;4.65;;;;;;;;;;10091693;28;20049;-68
2023/01/22 03:07:03;;;;;;;6.30;5.70;;;;;;;;;;10091731;28;20076;-68
2023/01/22 03:11:57;;;;;;;5.93;5.32;;;;;;;;;;10092821;28;20102;-68
2023/01/22 03:22:06;;;;;;;7.10;6.05;;;;;;;;;;10096425;28;20049;-68
2023/01/22 03:27:00;;;;;;;5.43;4.97;;;;;;;;;;10096943;28;20061;-68
2023/01/22 03:31:55;;;;;;;7.45;6.18;;;;;;;;;;10097330;28;20041;-68
2023/01/22 03:36:48;;;;;;;5.05;4.60;;;;;;;;;;10095933;28;20049;-68
2023/01/22 03:41:41;;;;;;;6.55;5.72;;;;;;;;;;10096251;28;20079;-68
2023/01/22 03:46:34;;;;;;;6.20;5.60;;;;;;;;;;10095392;28;20048;-68
2023/01/22 03:51:28;;;;;;;6.20;5.10;;;;;;;;;;10092813;28;20055;-68
2023/01/22 03:56:22;;;;;;;7.82;5.60;;;;;;;;;;10113643;28;20049;-68
2023/01/22 04:01:21;;;;;;;8.82;5.70;;;;;;;;;;10114676;28;20098;-68
2023/01/22 04:06:17;;;;;;;6.45;5.85;;;;;;;;;;10090174;28;20085;-67
2023/01/22 04:11:11;;;;;;;7.07;6.47;;;;;;;;;;10097308;28;20044;-68
2023/01/22 04:16:06;;;;;;;13.82;7.30;;;;;;;;;;10094110;28;20055;-67
2023/01/22 04:21:26;;;;;;;7.82;6.28;;;;;;;;;;10092332;28;20075;-68
2023/01/22 04:26:23;;;;;;;7.88;7.07;;;;;;;;;;10094080;28;20041;-68
2023/01/22 04:31:18;;;;;;;8.13;6.90;;;;;;;;;;10088713;28;20501;-67
2023/01/22 04:36:26;;;;;;;7.13;6.43;;;;;;;;;;10106960;28;20469;-68
2023/01/22 04:41:21;;;;;;;6.20;5.53;;;;;;;;;;10092652;28;20080;-68
2023/01/22 04:46:14;;;;;;;6.07;5.53;;;;;;;;;;10080003;28;20057;-68
2023/01/22 04:51:08;;;;;;;5.35;4.85;;;;;;;;;;10096616;28;20048;-68
2023/01/22 04:56:03;;;;;;;7.57;5.28;;;;;;;;;;10108655;28;20080;-68
2023/01/22 05:00:56;;;;;;;5.13;4.63;;;;;;;;;;10073993;28;20054;-68
2023/01/22 05:05:50;;;;;;;5.50;4.80;;;;;;;;;;10069550;28;20140;-68
2023/01/22 05:10:43;;;;;;;5.95;5.35;;;;;;;;;;10112121;28;20091;-68
2023/01/22 05:15:44;;;;;;;6.18;5.57;;;;;;;;;;10089626;28;20049;-68
2023/01/22 05:20:38;;;;;;;6.60;5.95;;;;;;;;;;10085476;28;20501;-68
2023/01/22 05:25:33;;;;;;;6.25;5.60;;;;;;;;;;10097732;28;20049;-68
2023/01/22 05:30:27;;;;;;;6.30;5.70;;;;;;;;;;10087898;28;20049;-68
2023/01/22 05:35:41;;;;;;;9.38;6.47;;;;;;;;;;10090996;28;20052;-68
2023/01/22 05:40:36;;;;;;;7.88;7.07;;;;;;;;;;10082142;28;20132;-68
2023/01/22 05:45:28;;;;;;;9.93;5.53;;;;;;;;;;10090257;28;20494;-69
2023/01/22 05:50:47;;;;;;;5.60;5.00;;;;;;;;;;10083986;28;20044;-68
2023/01/22 05:55:40;;;;;;;6.40;4.93;;;;;;;;;;10098285;28;20044;-65
2023/01/22 06:00:34;;;;;;;4.97;4.47;;;;;;;;;;10105870;28;20048;-68
2023/01/22 06:05:31;;;;;;;4.78;4.28;;;;;;;;;;10080539;28;20136;-68
2023/01/22 06:10:30;;;;;;;6.53;4.88;;;;;;;;;;10099199;28;20045;-68
2023/01/22 06:15:25;;;;;;;4.30;3.90;;;;;;;;;;10101248;28;20053;-68
2023/01/22 06:20:28;;;;;;;5.10;3.78;;;;;;;;;;10104977;28;20072;-69
2023/01/22 06:25:21;;;;;;;4.13;3.50;;;;;;;;;;10104150;28;20132;-68
2023/01/22 06:30:28;;;;;;;3.35;3.05;;;;;;;;;;10104571;28;20524;-69
2023/01/22 06:35:25;;;;;;;4.57;3.45;;;;;;;;;;10104760;28;20079;-67
2023/01/22 06:40:18;;;;;;;4.35;3.38;;;;;;;;;;10091839;28;20053;-68
2023/01/22 06:45:14;;;;;;;3.97;3.67;;;;;;;;;;10064663;28;20063;-70
2023/01/22 06:50:13;;;;;;;6.60;4.63;;;;;;;;;;10076970;28;20060;-69
2023/01/22 06:55:09;;;;;;;4.35;3.95;;;;;;;;;;10085055;28;20069;-70
2023/01/22 07:00:04;;;;;;;5.28;4.78;;;;;;;;;;10064497;28;20080;-66
2023/01/22 07:04:57;;;;;;;4.43;4.03;;;;;;;;;;10088798;28;20041;-66
2023/01/22 07:09:51;;;;;;;4.70;3.92;;;;;;;;;;10070650;28;20062;-65
2023/01/22 07:14:45;;;;;;;6.32;4.72;;;;;;;;;;10078927;28;20517;-64
2023/01/22 07:19:39;;;;;;;4.35;3.78;;;;;;;;;;10078335;28;20422;-65
2023/01/22 07:24:32;;;;;;;6.05;5.40;;;;;;;;;;10065800;28;20148;-65
2023/01/22 07:29:26;;;;;;;6.85;5.53;;;;;;;;;;10064816;28;20111;-66
2023/01/22 07:34:19;;;;;;;6.00;5.05;;;;;;;;;;10065067;28;20053;-65
2023/01/22 07:39:13;;;;;;;5.32;4.80;;;;;;;;;;10067372;28;20053;-64
2023/01/22 07:44:07;;;;;;;6.05;5.00;;;;;;;;;;10090436;28;20127;-63
2023/01/22 07:49:00;;;;;;;5.63;5.05;;;;;;;;;;10092025;28;20144;-65
2023/01/22 07:53:55;;;;;;;5.38;4.88;;;;;;;;;;10084908;28;20080;-64
2023/01/22 07:58:48;;;;;;;4.47;4.07;;;;;;;;;;10087335;28;20056;-67
2023/01/22 08:03:42;;;;;;;6.05;4.75;;;;;;;;;;10095010;28;20048;-64
2023/01/22 08:08:36;;;;;;;6.68;5.18;;;;;;;;;;10098720;28;20463;-64
2023/01/22 08:13:30;;;;;;;5.32;4.20;;;;;;;;;;10101300;28;20041;-65
2023/01/22 08:18:23;;;;;;;5.03;4.53;;;;;;;;;;10104377;28;20508;-65
2023/01/22 08:23:17;;;;;;;5.13;4.57;;;;;;;;;;10099887;28;20132;-67
2023/01/22 08:28:13;;;;;;;5.07;4.57;;;;;;;;;;10102269;28;20067;-67
2023/01/22 08:33:07;;;;;;;4.90;4.50;;;;;;;;;;10101117;28;20052;-67
2023/01/22 08:38:02;;;;;;;4.80;4.35;;;;;;;;;;10099497;28;20045;-65
2023/01/22 08:42:56;;;;;;;6.28;4.63;;;;;;;;;;10099477;28;20045;-66
2023/01/22 08:47:50;;;;;;;4.40;3.65;;;;;;;;;;10099863;28;20103;-66
2023/01/22 08:52:44;;;;;;;6.47;3.35;;;;;;;;;;10096145;28;20045;-66
2023/01/22 08:57:37;;;;;;;7.22;2.97;;;;;;;;;;10099655;28;20041;-66
2023/01/22 09:02:31;;;;;;;4.72;3.00;;;;;;;;;;10096959;28;20048;-66
2023/01/22 09:07:25;;;;;;;5.00;3.33;;;;;;;;;;10091997;28;20049;-65
2023/01/22 09:12:18;;;;;;;3.75;2.90;;;;;;;;;;10098513;28;20045;-63
2023/01/22 09:17:11;;;;;;;3.05;2.75;;;;;;;;;;10100060;28;20048;-64
2023/01/22 09:22:07;;;;;;;4.20;3.35;;;;;;;;;;10101633;28;20405;-64
2023/01/22 09:27:03;;;;;;;5.10;3.40;;;;;;;;;;10095215;28;20518;-66
2023/01/22 09:31:57;;;;;;;6.95;2.85;;;;;;;;;;10095396;28;20386;-67
2023/01/22 09:36:50;;;;;;;6.65;4.32;;;;;;;;;;10099241;28;20100;-66
2023/01/22 09:41:48;;;;;;;8.48;4.10;;;;;;;;;;10099372;28;20079;-67
2023/01/22 09:46:55;;;;;;;7.07;3.58;;;;;;;;;;10097831;28;20061;-68
2023/01/22 09:51:57;;;;;;;5.40;3.13;;;;;;;;;;10093600;28;20053;-66
2023/01/22 09:56:53;;;;;;;3.97;2.97;;;;;;;;;;10093820;28;20124;-63
2023/01/22 10:01:52;;;;;;;9.35;3.75;;;;;;;;;;10094128;28;20052;-64
2023/01/22 10:06:47;;;;;;;5.85;3.00;;;;;;;;;;10093226;28;20060;-64
2023/01/22 10:11:40;;;;;;;4.80;4.25;;;;;;;;;;10097658;28;20467;-63
2023/01/22 10:16:34;;;;;;;5.20;3.58;;;;;;;;;;10090821;28;20148;-64
2023/01/22 10:21:38;;;;;;;5.45;3.60;;;;;;;;;;10093418;28;20647;-65
2023/01/22 10:26:42;;;;;;;7.63;3.10;;;;;;;;;;10088546;28;20056;-65
2023/01/22 10:31:39;;;;;;;6.75;4.60;;;;;;;;;;10090731;28;20523;-66
2023/01/22 10:36:32;;;;;;;3.45;3.15;;;;;;;;;;10087161;28;20056;-67
2023/01/22 10:41:29;;;;;;;4.20;3.13;;;;;;;;;;10089042;28;20509;-68
2023/01/22 10:46:25;;;;;;;4.10;3.70;;;;;;;;;;10094514;28;20053;-68
2023/01/22 10:51:23;;;;;;;5.90;3.90;;;;;;;;;;10092909;28;20094;-67
2023/01/22 10:56:29;;;;;;;15.23;8.75;;;;;;;;;;10091913;28;20067;-67
2023/01/22 11:01:35;;;;;;;10.85;5.50;;;;;;;;;;10093113;28;20049;-67
2023/01/22 11:06:36;;;;;;;9.63;7.55;;;;;;;;;;10093837;28;20099;-68
2023/01/22 11:11:36;;;;;;;8.95;8.00;;;;;;;;;;10095445;28;20133;-66
2023/01/22 11:16:33;;;;;;;14.07;10.88;;;;;;;;;;10111298;28;20053;-66
2023/01/22 11:21:49;;;;;;;4.43;3.10;;;;;;;;;;10094558;28;20128;-66
2023/01/22 11:27:00;;;;;;;14.00;3.67;;;;;;;;;;10094279;28;20045;-66
2023/01/22 11:32:24;;;;;;;11.20;3.80;;;;;;;;;;10094796;28;20052;-65
2023/01/22 11:37:20;;;;;;;6.82;5.03;;;;;;;;;;10092972;28;20480;-65
2023/01/22 11:42:39;;;;;;;4.22;3.42;;;;;;;;;;10097406;28;20076;-66
2023/01/22 11:47:54;;;;;;;9.03;7.63;;;;;;;;;;10098309;28;20061;-65
2023/01/22 11:52:55;;;;;;;10.43;5.40;;;;;;;;;;10092667;28;20532;-65
2023/01/22 11:58:20;;;;;;;6.05;5.10;;;;;;;;;;10091933;28;20461;-67
2023/01/22 12:03:55;;;;;;;11.65;3.92;;;;;;;;;;10090246;28;20049;-67
2023/01/22 12:09:13;;;;;;;4.07;3.42;;;;;;;;;;10086041;28;20045;-67
2023/01/22 12:14:50;;;;;;;5.07;2.85;;;;;;;;;;10091357;28;20064;-67
2023/01/22 12:20:02;;;;;;;3.88;3.58;;;;;;;;;;10100111;28;20044;-67
2023/01/22 12:25:00;;;;;;;5.45;3.10;;;;;;;;;;10098239;28;20037;-67
2023/01/22 12:30:23;;;;;;;4.33;3.90;;;;;;;;;;10101102;28;20041;-67
2023/01/22 12:35:19;;;;;;;7.70;3.53;;;;;;;;;;10097952;28;20045;-66
2023/01/22 12:40:25;;;;;;;6.60;3.13;;;;;;;;;;10097847;28;20075;-67
2023/01/22 12:45:37;;;;;;;8.82;3.72;;;;;;;;;;10098264;28;20103;-66
2023/01/22 12:50:30;;;;;;;4.10;2.35;;;;;;;;;;10097495;28;20041;-66
2023/01/22 12:55:31;;;;;;;5.82;4.43;;;;;;;;;;10092329;28;20448;-66
2023/01/22 13:00:37;;;;;;;6.10;3.83;;;;;;;;;;10099140;28;20073;-66
2023/01/22 13:05:30;;;;;;;13.45;5.00;;;;;;;;;;10097945;28;20049;-66
2023/01/22 13:10:29;;;;;;;4.13;3.28;;;;;;;;;;10099373;28;20049;-66
2023/01/22 13:15:36;;;;;;;5.15;3.70;;;;;;;;;;10099240;28;20389;-66
2023/01/22 13:20:35;;;;;;;9.70;4.55;;;;;;;;;;10093458;28;20054;-66
2023/01/22 13:25:31;;;;;;;6.10;3.22;;;;;;;;;;10096401;28;20056;-68
2023/01/22 13:30:27;;;;;;;6.18;4.43;;;;;;;;;;10097738;28;20053;-66
2023/01/22 13:35:21;;;;;;;3.85;3.28;;;;;;;;;;10093539;28;20071;-67
2023/01/22 13:40:23;;;;;;;2.97;2.78;;;;;;;;;;10094898;28;20405;-67
2023/01/22 13:45:26;;;;;;;5.10;4.10;;;;;;;;;;10092565;28;20477;-67
2023/01/22 13:50:21;;;;;;;4.32;3.17;;;;;;;;;;10115812;28;20516;-66
2023/01/22 13:55:17;;;;;;;12.57;6.20;;;;;;;;;;10094223;28;20856;-67
2023/01/22 14:00:31;;;;;;;8.05;5.97;;;;;;;;;;10095849;28;20049;-67
2023/01/22 14:05:27;;;;;;;9.95;5.45;;;;;;;;;;10089747;28;20057;-66
2023/01/22 14:10:25;;;;;;;9.63;5.15;;;;;;;;;;10094810;28;20480;-67
2023/01/22 14:15:20;;;;;;;12.10;5.90;;;;;;;;;;10092702;28;20095;-67
2023/01/22 14:20:14;;;;;;;10.90;6.65;;;;;;;;;;10097181;28;20048;-67
2023/01/22 14:25:09;;;;;;;10.68;6.55;;;;;;;;;;10097162;28;20048;-67
2023/01/22 14:30:03;;;;;;;15.45;8.65;;;;;;;;;;10098648;28;20041;-66
2023/01/22 14:34:58;;;;;;;8.77;6.40;;;;;;;;;;10093851;28;20064;-66
2023/01/22 14:39:52;;;;;;;14.13;7.43;;;;;;;;;;10092333;28;20122;-67
2023/01/22 14:44:45;;;;;;;9.65;7.15;;;;;;;;;;10093139;28;20096;-65
2023/01/22 14:49:39;;;;;;;9.90;8.30;;;;;;;;;;10090750;28;20052;-67
2023/01/22 14:54:33;;;;;;;16.27;13.50;;;;;;;;;;10089956;28;20049;-66
2023/01/22 14:59:26;;;;;;;15.85;8.85;;;;;;;;;;10091009;28;20508;-64
2023/01/22 15:04:19;;;;;;;10.80;9.70;;;;;;;;;;10083900;28;20077;-67
2023/01/22 15:09:12;;;;;;;12.05;8.80;;;;;;;;;;10089761;28;20159;-66
2023/01/22 15:14:07;;;;;;;9.57;7.25;;;;;;;;;;10093038;28;20506;-65
2023/01/22 15:19:02;;;;;;;11.80;7.00;;;;;;;;;;10095664;28;20102;-66
2023/01/22 15:23:56;;;;;;;7.93;6.50;;;;;;;;;;10098038;28;21623;-66
2023/01/22 15:28:49;;;;;;;10.35;5.50;;;;;;;;;;10100114;28;20432;-67
2023/01/22 15:33:42;;;;;;;10.70;5.75;;;;;;;;;;10097413;28;20049;-69
2023/01/22 15:38:36;;;;;;;5.85;5.13;;;;;;;;;;10095854;28;20042;-67
2023/01/22 15:43:30;;;;;;;8.60;5.88;;;;;;;;;;10098951;28;20053;-67
2023/01/22 15:48:24;;;;;;;7.88;5.43;;;;;;;;;;10097152;28;20099;-67
2023/01/22 15:53:18;;;;;;;6.57;5.55;;;;;;;;;;10099658;28;20049;-67
2023/01/22 15:58:13;;;;;;;6.45;5.43;;;;;;;;;;10098317;28;20533;-67
2023/01/22 16:03:07;;;;;;;10.80;5.95;;;;;;;;;;10096346;28;20139;-68
2023/01/22 16:07:59;;;;;;;6.55;4.93;;;;;;;;;;10093156;28;20049;-68
2023/01/22 16:12:53;;;;;;;13.50;5.30;;;;;;;;;;10096491;28;20056;-68
2023/01/22 16:17:48;;;;;;;13.00;6.22;;;;;;;;;;10095414;28;20053;-67
2023/01/22 16:22:44;;;;;;;9.80;5.47;;;;;;;;;;10099733;28;20056;-66
2023/01/22 16:27:37;;;;;;;9.93;5.35;;;;;;;;;;10097873;28;20065;-67
2023/01/22 16:32:31;;;;;;;6.28;5.00;;;;;;;;;;10095854;28;20041;-63
2023/01/22 16:37:24;;;;;;;6.57;5.15;;;;;;;;;;10101637;28;20521;-66
2023/01/22 16:42:17;;;;;;;26.65;19.88;;;;;;;;;;10102012;28;20076;-65
2023/01/22 16:47:10;;;;;;;19.58;14.32;;;;;;;;;;10100502;28;20107;-66
2023/01/22 16:52:05;;;;;;;50.22;34.22;;;;;;;;;;10101264;28;20137;-83
2023/01/22 16:57:18;;;;;;;7.60;5.85;;;;;;;;;;10096722;28;20044;-84
2023/01/22 17:02:14;;;;;;;11.73;5.90;;;;;;;;;;10092641;28;20047;-80
2023/01/22 17:07:09;;;;;;;10.77;6.70;;;;;;;;;;10091374;28;20099;-80
2023/01/22 17:12:19;;;;;;;7.95;5.47;;;;;;;;;;10095754;28;20055;-80
2023/01/22 17:17:12;;;;;;;17.63;6.65;;;;;;;;;;10096056;28;20029;-78
2023/01/22 17:22:05;;;;;;;9.70;7.35;;;;;;;;;;10094864;28;20037;-78
2023/01/22 17:27:01;;;;;;;11.93;9.00;;;;;;;;;;10096539;28;20099;-79
2023/01/22 17:31:56;;;;;;;26.50;9.98;;;;;;;;;;10093575;28;20057;-78
2023/01/22 17:36:50;;;;;;;13.73;9.13;;;;;;;;;;10091672;28;20124;-78
2023/01/22 17:41:43;;;;;;;12.57;9.75;;;;;;;;;;10092045;28;20057;-78
2023/01/22 17:46:36;;;;;;;13.10;9.30;;;;;;;;;;10090970;28;20114;-78
2023/01/22 17:51:31;;;;;;;10.73;8.15;;;;;;;;;;10088224;28;20079;-81
2023/01/22 17:56:29;;;;;;;8.65;7.43;;;;;;;;;;10093214;28;20049;-82
2023/01/22 18:01:28;;;;;;;10.30;6.88;;;;;;;;;;10088345;28;20087;-82
2023/01/22 18:06:22;;;;;;;12.43;7.93;;;;;;;;;;10086567;28;20845;-80
2023/01/22 18:11:19;;;;;;;16.60;12.43;;;;;;;;;;10089668;28;20512;-82
2023/01/22 18:16:14;;;;;;;14.35;10.90;;;;;;;;;;10086948;28;20076;-81
2023/01/22 18:21:15;;;;;;;11.65;9.43;;;;;;;;;;10089101;28;20037;-83
2023/01/22 18:26:09;;;;;;;12.88;9.05;;;;;;;;;;10104202;28;20046;-79
2023/01/22 18:31:11;;;;;;;8.90;7.32;;;;;;;;;;10079178;28;20072;-82
2023/01/22 18:36:09;;;;;;;10.02;6.80;;;;;;;;;;10089860;28;20051;-81
2023/01/22 18:41:09;;;;;;;8.23;7.03;;;;;;;;;;10089062;28;20082;-80
2023/01/22 18:46:05;;;;;;;9.60;7.32;;;;;;;;;;10092043;28;20477;-81
2023/01/22 18:50:58;;;;;;;8.85;7.93;;;;;;;;;;10089524;28;20087;-78
2023/01/22 18:55:52;;;;;;;9.90;7.03;;;;;;;;;;10081646;28;20055;-65
2023/01/22 19:00:46;;;;;;;9.55;8.48;;;;;;;;;;10085518;28;20053;-65
2023/01/22 19:05:39;;;;;;;10.20;8.57;;;;;;;;;;10081424;28;20068;-65
2023/01/22 19:10:33;;;;;;;10.85;8.43;;;;;;;;;;10084293;28;20049;-63
2023/01/22 19:15:26;;;;;;;7.55;6.85;;;;;;;;;;10087278;28;20057;-62
2023/01/22 19:20:20;;;;;;;10.07;6.88;;;;;;;;;;10088620;28;20110;-65
2023/01/22 19:25:14;;;;;;;8.65;7.47;;;;;;;;;;10082350;28;20485;-64
2023/01/22 19:30:11;;;;;;;9.35;7.97;;;;;;;;;;10093024;28;20098;-65
2023/01/22 19:35:07;;;;;;;7.90;6.55;;;;;;;;;;10111523;28;20044;-62
2023/01/22 19:40:01;;;;;;;9.23;7.82;;;;;;;;;;10103331;28;20142;-65
2023/01/22 19:44:54;;;;;;;12.05;8.00;;;;;;;;;;10102328;28;20048;-64
2023/01/22 19:49:48;;;;;;;9.70;7.60;;;;;;;;;;10100967;28;20061;-64
2023/01/22 19:54:46;;;;;;;7.90;7.00;;;;;;;;;;10102198;28;20052;-64
2023/01/22 19:59:41;;;;;;;9.10;7.83;;;;;;;;;;10110974;28;20052;-64
2023/01/22 20:04:35;;;;;;;11.15;8.43;;;;;;;;;;10106502;28;20056;-65
2023/01/22 20:09:29;;;;;;;9.35;8.43;;;;;;;;;;10106883;28;20041;-64
2023/01/22 20:14:28;;;;;;;9.82;8.82;;;;;;;;;;10096854;28;20102;-64
2023/01/22 20:19:21;;;;;;;12.00;9.38;;;;;;;;;;10120371;28;20132;-64
2023/01/22 20:24:15;;;;;;;10.13;8.73;;;;;;;;;;10102678;28;20124;-65
2023/01/22 20:29:11;;;;;;;11.40;9.85;;;;;;;;;;10100107;28;20134;-65
2023/01/22 20:34:04;;;;;;;14.23;10.63;;;;;;;;;;10101381;28;20127;-63
2023/01/22 20:39:00;;;;;;;10.75;8.88;;;;;;;;;;10108802;28;20048;-66
2023/01/22 20:43:54;;;;;;;9.65;8.00;;;;;;;;;;10100319;28;20106;-63
2023/01/22 20:48:47;;;;;;;8.13;6.97;;;;;;;;;;10103151;28;20653;-64
2023/01/22 20:53:42;;;;;;;8.73;6.82;;;;;;;;;;10101873;28;20116;-63
2023/01/22 20:58:35;;;;;;;10.15;9.00;;;;;;;;;;10102473;28;20059;-63
2023/01/22 21:03:30;;;;;;;11.18;9.43;;;;;;;;;;10090727;28;20101;-63
2023/01/22 21:08:24;;;;;;;9.07;8.00;;;;;;;;;;10091539;28;20409;-64
2023/01/22 21:13:17;;;;;;;7.63;6.75;;;;;;;;;;10091039;28;21813;-64
2023/01/22 21:18:11;;;;;;;9.68;7.85;;;;;;;;;;10090555;28;20468;-66
2023/01/22 21:23:05;;;;;;;8.05;7.18;;;;;;;;;;10095512;28;20056;-64
2023/01/22 21:28:00;;;;;;;11.55;8.25;;;;;;;;;;10092929;28;20040;-64
2023/01/22 21:32:54;;;;;;;8.48;7.18;;;;;;;;;;10095106;28;20123;-64
2023/01/22 21:37:48;;;;;;;8.73;7.68;;;;;;;;;;10089988;28;20055;-64
2023/01/22 21:47:54;;;;;;;6.72;6.03;;;;;;;;;;10097193;28;20053;-64
2023/01/22 21:52:53;;;;;;;10.07;7.03;;;;;;;;;;10092431;28;20056;-64
2023/01/22 21:57:47;;;;;;;8.68;7.35;;;;;;;;;;10092865;28;20053;-65
2023/01/22 22:02:40;;;;;;;8.18;6.47;;;;;;;;;;10092722;28;20081;-64
2023/01/22 22:07:34;;;;;;;8.48;7.47;;;;;;;;;;10095430;28;20048;-64
2023/01/22 22:12:30;;;;;;;10.85;8.05;;;;;;;;;;10097659;28;20045;-64
2023/01/22 22:17:25;;;;;;;9.27;7.78;;;;;;;;;;10089786;28;20069;-64
2023/01/22 22:22:20;;;;;;;8.82;7.88;;;;;;;;;;10081839;28;20057;-64
2023/01/22 22:27:15;;;;;;;8.23;7.38;;;;;;;;;;10096551;28;20102;-65
2023/01/22 22:32:08;;;;;;;11.38;7.65;;;;;;;;;;10093623;28;20048;-64
2023/01/22 22:37:02;;;;;;;10.32;7.28;;;;;;;;;;10093999;28;20045;-64
2023/01/22 22:41:56;;;;;;;7.80;6.93;;;;;;;;;;10084773;28;20174;-65
2023/01/22 22:46:51;;;;;;;8.25;7.15;;;;;;;;;;10095535;28;20060;-65
2023/01/22 22:51:45;;;;;;;8.73;6.78;;;;;;;;;;10093720;28;20461;-65
2023/01/22 22:56:43;;;;;;;12.55;7.90;;;;;;;;;;10090598;28;20095;-65
2023/01/22 23:01:36;;;;;;;11.50;7.68;;;;;;;;;;10084829;28;20072;-64
2023/01/22 23:06:32;;;;;;;9.30;7.90;;;;;;;;;;10090418;28;20482;-64
2023/01/22 23:11:34;;;;;;;9.73;8.15;;;;;;;;;;10085572;28;20048;-64
2023/01/22 23:16:54;;;;;;;8.70;7.45;;;;;;;;;;10087490;28;20451;-65
2023/01/22 23:22:10;;;;;;;8.45;6.95;;;;;;;;;;10077989;28;20045;-64
2023/01/22 23:27:03;;;;;;;10.10;7.28;;;;;;;;;;10098254;28;20139;-65
2023/01/22 23:31:57;;;;;;;9.68;7.65;;;;;;;;;;10097897;28;20049;-65
2023/01/22 23:36:51;;;;;;;7.70;7.00;;;;;;;;;;10100876;28;20430;-64
2023/01/22 23:41:45;;;;;;;8.38;7.57;;;;;;;;;;10107005;28;20099;-64
2023/01/22 23:46:38;;;;;;;10.10;7.82;;;;;;;;;;10100239;28;20402;-65
2023/01/22 23:51:32;;;;;;;8.55;7.65;;;;;;;;;;10122872;28;20079;-65
2023/01/22 23:56:30;;;;;;;10.27;7.22;;;;;;;;;;10142456;28;20148;-65
